createdAt,value
2022-09-09T00:02:30.960Z,119.13
2022-09-09T00:05:11.133Z,106.80
2022-09-09T00:07:49.238Z,116.10
2022-09-09T00:10:24.761Z,110.10
2022-09-09T00:13:10.393Z,117.90
2022-09-09T00:15:52.656Z,140.18
2022-09-09T00:18:30.421Z,122.43
2022-09-09T00:21:08.630Z,100.68
2022-09-09T00:23:43.166Z,115.05
2022-09-09T00:26:19.050Z,121.40
2022-09-09T00:28:57.553Z,125.18
2022-09-09T00:31:32.162Z,114.75
2022-09-09T00:34:13.966Z,123.63
2022-09-09T00:36:45.685Z,122.65
2022-09-09T00:39:33.545Z,120.07
2022-09-09T00:42:17.119Z,104.65
2022-09-09T00:45:00.003Z,108.10
2022-09-09T00:47:51.977Z,122.28
2022-09-09T00:53:25.828Z,99.55
2022-09-09T00:56:06.522Z,97.07
2022-09-09T00:58:35.849Z,103.20
2022-09-09T01:01:08.835Z,110.05
2022-09-09T01:03:46.431Z,120.22
2022-09-09T01:06:22.199Z,123.40
2022-09-09T01:09:20.351Z,103.95
2022-09-09T01:12:01.857Z,105.10
2022-09-09T01:14:45.442Z,118.05
2022-09-09T01:17:21.790Z,105.88
2022-09-09T01:20:13.974Z,109.50
2022-09-09T01:23:06.084Z,104.18
2022-09-09T01:26:28.682Z,109.85
2022-09-09T01:29:01.141Z,108.88
2022-09-09T01:31:42.087Z,106.30
2022-09-09T01:34:14.587Z,128.18
2022-09-09T01:36:52.046Z,124.93
2022-09-09T01:39:22.430Z,114.53
2022-09-09T01:42:01.729Z,113.40
2022-09-09T01:44:32.140Z,114.95
2022-09-09T01:47:01.631Z,121.95
2022-09-09T01:49:31.015Z,119.05
2022-09-09T01:52:01.279Z,129.38
2022-09-09T01:54:36.269Z,117.25
2022-09-09T01:57:20.933Z,113.95
2022-09-09T02:00:07.466Z,127.68
2022-09-09T02:02:55.775Z,119.35
2022-09-09T02:05:38.958Z,195.27
2022-09-09T02:08:23.036Z,108.35
2022-09-09T02:11:03.388Z,131.98
2022-09-09T02:13:46.488Z,108.35
2022-09-09T02:16:26.095Z,140.02
2022-09-09T02:19:03.424Z,124.20
2022-09-09T02:21:46.373Z,105.78
2022-09-09T02:24:18.154Z,117.15
2022-09-09T02:26:56.814Z,136.25
2022-09-09T02:29:33.989Z,122.88
2022-09-09T02:32:09.722Z,142.88
2022-09-09T02:34:50.207Z,92.07
2022-09-09T02:37:22.668Z,116.70
2022-09-09T02:39:55.699Z,117.63
2022-09-09T02:42:26.140Z,107.38
2022-09-09T02:44:58.919Z,125.05
2022-09-09T02:47:37.401Z,112.03
2022-09-09T02:50:17.938Z,105.95
2022-09-09T02:53:08.659Z,122.20
2022-09-09T02:55:49.412Z,114.05
2022-09-09T02:58:21.738Z,103.38
2022-09-09T03:01:06.344Z,117.60
2022-09-09T03:03:35.892Z,117.50
2022-09-09T03:06:11.053Z,101.75
2022-09-09T03:08:41.661Z,124.75
2022-09-09T03:11:15.730Z,99.95
2022-09-09T03:13:45.621Z,133.85
2022-09-09T03:16:16.921Z,105.10
2022-09-09T03:18:50.187Z,108.13
2022-09-09T03:21:19.575Z,117.25
2022-09-09T03:23:49.308Z,93.32
2022-09-09T03:26:18.881Z,105.05
2022-09-09T03:28:50.895Z,97.90
2022-09-09T03:31:22.980Z,106.80
2022-09-09T03:33:53.409Z,114.50
2022-09-09T03:36:24.056Z,99.07
2022-09-09T03:38:53.401Z,99.43
2022-09-09T03:41:25.011Z,90.82
2022-09-09T03:43:55.813Z,96.20
2022-09-09T03:48:58.290Z,92.32
2022-09-09T03:51:27.515Z,99.45
2022-09-09T03:53:57.929Z,102.72
2022-09-09T03:56:28.449Z,97.50
2022-09-09T03:58:58.613Z,93.00
2022-09-09T04:01:30.509Z,99.38
2022-09-09T04:04:00.219Z,95.18
2022-09-09T04:06:29.810Z,114.47
2022-09-09T04:08:59.348Z,92.88
2022-09-09T04:11:29.352Z,106.57
2022-09-09T04:14:01.226Z,104.53
2022-09-09T04:16:33.907Z,98.28
2022-09-09T04:19:05.275Z,114.97
2022-09-09T04:21:34.670Z,112.95
2022-09-09T04:24:05.260Z,119.63
2022-09-09T04:26:34.537Z,101.32
2022-09-09T04:29:04.213Z,112.18
2022-09-09T04:31:35.818Z,102.45
2022-09-09T04:34:06.423Z,136.52
2022-09-09T04:36:36.731Z,108.40
2022-09-09T04:39:08.166Z,118.38
2022-09-09T04:41:37.387Z,94.22
2022-09-09T04:44:06.995Z,109.28
2022-09-09T04:46:37.741Z,115.40
2022-09-09T04:49:08.066Z,122.35
2022-09-09T04:51:38.379Z,147.60
2022-09-09T04:54:08.349Z,97.60
2022-09-09T04:56:39.976Z,112.70
2022-09-09T04:59:09.278Z,134.90
2022-09-09T05:01:46.839Z,201.10
2022-09-09T05:04:16.414Z,108.20
2022-09-09T05:06:46.944Z,102.63
2022-09-09T05:09:16.614Z,99.90
2022-09-09T05:11:47.360Z,109.75
2022-09-09T05:14:24.240Z,127.38
2022-09-09T05:16:54.814Z,107.32
2022-09-09T05:19:25.604Z,101.53
2022-09-09T05:21:56.146Z,97.70
2022-09-09T05:24:34.311Z,111.50
2022-09-09T05:27:06.463Z,114.93
2022-09-09T05:29:36.178Z,104.75
2022-09-09T05:32:13.551Z,111.00
2022-09-09T05:34:45.988Z,138.10
2022-09-09T05:37:15.248Z,113.45
2022-09-09T05:39:45.428Z,101.38
2022-09-09T05:42:15.349Z,123.03
2022-09-09T05:44:45.981Z,108.35
2022-09-09T05:47:17.150Z,91.10
2022-09-09T05:49:46.664Z,118.38
2022-09-09T05:52:16.076Z,91.75
2022-09-09T05:54:45.391Z,115.18
2022-09-09T05:57:14.566Z,120.82
2022-09-09T05:59:43.828Z,136.80
2022-09-09T06:02:13.712Z,133.30
2022-09-09T06:04:44.432Z,122.38
2022-09-09T06:07:15.850Z,106.32
2022-09-09T06:09:45.170Z,125.78
2022-09-09T06:12:15.430Z,90.22
2022-09-09T06:14:46.543Z,144.65
2022-09-09T06:17:19.699Z,111.22
2022-09-09T06:19:53.356Z,109.53
2022-09-09T06:22:25.144Z,131.68
2022-09-09T06:24:54.705Z,105.72
2022-09-09T06:27:23.863Z,126.30
2022-09-09T06:29:53.470Z,107.22
2022-09-09T06:32:22.762Z,97.90
2022-09-09T06:34:54.450Z,106.15
2022-09-09T06:37:25.200Z,133.98
2022-09-09T06:39:55.850Z,123.18
2022-09-09T06:42:25.651Z,122.18
2022-09-09T06:45:08.278Z,101.63
2022-09-09T06:47:47.815Z,108.40
2022-09-09T06:50:19.317Z,131.80
2022-09-09T06:52:49.804Z,125.72
2022-09-09T06:55:20.982Z,101.85
2022-09-09T06:57:51.359Z,93.22
2022-09-09T07:00:27.192Z,100.53
2022-09-09T07:02:56.644Z,125.32
2022-09-09T07:05:27.768Z,99.72
2022-09-09T07:07:57.483Z,112.00
2022-09-09T07:10:27.539Z,113.65
2022-09-09T07:12:58.154Z,110.43
2022-09-09T07:15:28.453Z,110.80
2022-09-09T07:17:57.850Z,111.32
2022-09-09T07:20:32.285Z,107.85
2022-09-09T07:23:04.645Z,102.22
2022-09-09T07:28:04.461Z,115.20
2022-09-09T07:30:38.349Z,101.90
2022-09-09T07:33:10.659Z,100.40
2022-09-09T07:35:41.780Z,113.30
2022-09-09T07:38:12.327Z,115.68
2022-09-09T07:40:41.553Z,106.72
2022-09-09T07:43:13.335Z,107.55
2022-09-09T07:45:46.115Z,126.90
2022-09-09T07:48:15.521Z,112.32
2022-09-09T07:50:48.627Z,103.70
2022-09-09T07:53:18.584Z,110.43
2022-09-09T07:55:48.337Z,110.88
2022-09-09T07:58:17.491Z,114.40
2022-09-09T08:00:46.787Z,122.20
2022-09-09T08:03:16.188Z,111.72
2022-09-09T08:05:45.338Z,105.10
2022-09-09T08:08:17.423Z,120.32
2022-09-09T08:10:48.003Z,107.50
2022-09-09T08:13:19.206Z,117.82
2022-09-09T08:15:52.257Z,119.43
2022-09-09T08:18:23.172Z,117.68
2022-09-09T08:20:52.772Z,118.55
2022-09-09T08:23:23.565Z,117.78
2022-09-09T08:25:52.728Z,115.00
2022-09-09T08:28:22.285Z,148.35
2022-09-09T08:30:54.381Z,123.78
2022-09-09T08:33:24.021Z,123.72
2022-09-09T08:35:54.281Z,114.85
2022-09-09T08:38:25.744Z,109.88
2022-09-09T08:41:07.227Z,119.43
2022-09-09T08:43:36.906Z,125.93
2022-09-09T08:46:13.876Z,107.78
2022-09-09T08:48:59.167Z,128.73
2022-09-09T08:51:31.644Z,127.75
2022-09-09T08:54:05.616Z,112.63
2022-09-09T08:56:36.199Z,114.60
2022-09-09T08:59:07.344Z,120.13
2022-09-09T09:01:56.077Z,132.38
2022-09-09T09:05:07.612Z,126.28
2022-09-09T09:07:56.870Z,136.13
2022-09-09T09:10:50.090Z,112.30
2022-09-09T09:13:29.202Z,116.75
2022-09-09T09:16:09.103Z,113.35
2022-09-09T09:18:38.918Z,117.88
2022-09-09T09:21:17.065Z,120.28
2022-09-09T09:23:55.125Z,126.18
2022-09-09T09:26:32.140Z,117.20
2022-09-09T09:29:04.113Z,159.02
2022-09-09T09:31:33.521Z,133.63
2022-09-09T09:34:03.551Z,110.28
2022-09-09T09:36:42.487Z,178.40
2022-09-09T09:42:21.666Z,118.38
2022-09-09T09:44:53.469Z,129.82
2022-09-09T09:47:25.555Z,128.77
2022-09-09T09:50:03.683Z,130.80
2022-09-09T09:52:38.560Z,140.93
2022-09-09T09:55:16.781Z,144.45
2022-09-09T09:57:50.197Z,133.23
2022-09-09T10:00:23.029Z,118.97
2022-09-09T10:03:03.347Z,162.55
2022-09-09T10:05:38.952Z,179.32
2022-09-09T10:08:17.628Z,145.93
2022-09-09T10:11:15.867Z,177.65
2022-09-09T10:13:55.687Z,162.73
2022-09-09T10:16:45.359Z,214.45
2022-09-09T10:19:19.265Z,141.75
2022-09-09T10:22:18.318Z,161.65
2022-09-09T10:25:36.381Z,194.95
2022-09-09T10:28:59.944Z,184.65
2022-09-09T10:34:29.771Z,105.55
2022-09-09T10:37:01.661Z,187.63
2022-09-09T10:39:43.176Z,196.63
2022-09-09T10:42:16.431Z,197.95
2022-09-09T10:45:04.217Z,299.77
2022-09-09T10:48:06.999Z,318.98
2022-09-09T10:51:01.112Z,239.98
2022-09-09T10:53:47.597Z,178.82
2022-09-09T10:56:20.933Z,240.25
2022-09-09T10:58:54.627Z,265.98
2022-09-09T11:01:30.400Z,225.13
2022-09-09T11:04:05.863Z,269.50
2022-09-09T11:06:42.122Z,301.77
2022-09-09T11:09:18.148Z,279.00
2022-09-09T11:11:55.405Z,188.75
2022-09-09T11:14:37.403Z,231.93
2022-09-09T11:17:15.899Z,153.98
2022-09-09T11:19:46.503Z,235.60
2022-09-09T11:22:30.494Z,162.90
2022-09-09T11:25:05.895Z,214.80
2022-09-09T11:27:45.476Z,278.10
2022-09-09T11:30:44.559Z,254.70
2022-09-09T11:34:00.523Z,184.30
2022-09-09T11:37:08.336Z,192.30
2022-09-09T11:40:16.291Z,191.10
2022-09-09T11:42:45.818Z,177.25
2022-09-09T11:45:28.342Z,221.57
2022-09-09T11:48:00.060Z,229.57
2022-09-09T11:50:39.028Z,227.40
2022-09-09T11:53:25.907Z,272.05
2022-09-09T11:56:14.078Z,234.38
2022-09-09T11:58:58.786Z,189.07
2022-09-09T12:01:38.253Z,249.25
2022-09-09T12:04:35.028Z,354.98
2022-09-09T12:07:24.893Z,230.90
2022-09-09T12:09:59.709Z,363.55
2022-09-09T12:12:33.957Z,279.65
2022-09-09T12:15:25.644Z,297.13
2022-09-09T12:18:02.126Z,325.88
2022-09-09T12:20:37.279Z,330.48
2022-09-09T12:23:32.110Z,347.23
2022-09-09T12:26:21.896Z,374.27
2022-09-09T12:29:05.692Z,305.00
2022-09-09T12:31:45.754Z,403.00
2022-09-09T12:34:22.783Z,349.42
2022-09-09T12:36:59.534Z,304.48
2022-09-09T12:39:38.651Z,361.52
2022-09-09T12:42:18.640Z,323.92
2022-09-09T12:44:56.511Z,321.08
2022-09-09T12:47:34.758Z,333.90
2022-09-09T12:50:04.282Z,246.55
2022-09-09T12:52:38.381Z,250.45
2022-09-09T12:55:10.246Z,254.70
2022-09-09T12:57:41.689Z,282.75
2022-09-09T13:00:18.549Z,295.35
2022-09-09T13:02:54.147Z,286.05
2022-09-09T13:05:29.195Z,331.00
2022-09-09T13:08:04.657Z,297.75
2022-09-09T13:11:01.782Z,329.27
2022-09-09T13:13:42.182Z,281.17
2022-09-09T13:16:24.044Z,325.38
2022-09-09T13:18:54.122Z,350.35
2022-09-09T13:21:35.648Z,298.15
2022-09-09T13:24:08.652Z,294.48
2022-09-09T13:26:39.625Z,266.27
2022-09-09T13:29:20.229Z,271.42
2022-09-09T13:31:53.636Z,288.25
2022-09-09T13:34:32.716Z,266.95
2022-09-09T13:37:06.316Z,313.67
2022-09-09T13:39:38.081Z,360.25
2022-09-09T13:42:26.442Z,308.75
2022-09-09T13:44:56.934Z,295.95
2022-09-09T13:47:33.824Z,246.13
2022-09-09T13:50:22.147Z,272.52
2022-09-09T13:52:52.570Z,263.80
2022-09-09T13:55:24.563Z,195.88
2022-09-09T13:57:57.253Z,262.20
2022-09-09T14:00:27.457Z,263.55
2022-09-09T14:02:57.121Z,294.48
2022-09-09T14:05:26.453Z,231.32
2022-09-09T14:07:55.936Z,213.27
2022-09-09T14:10:25.093Z,285.75
2022-09-09T14:12:55.760Z,238.85
2022-09-09T14:15:25.224Z,296.77
2022-09-09T14:17:54.420Z,255.50
2022-09-09T14:20:23.646Z,213.90
2022-09-09T14:22:54.497Z,270.98
2022-09-09T14:25:23.688Z,213.15
2022-09-09T14:27:54.234Z,282.38
2022-09-09T14:30:23.364Z,254.00
2022-09-09T14:32:52.667Z,219.77
2022-09-09T14:35:23.344Z,208.95
2022-09-09T14:37:52.849Z,242.70
2022-09-09T14:40:22.571Z,197.48
2022-09-09T14:42:52.374Z,243.90
2022-09-09T14:45:25.941Z,237.15
2022-09-09T14:47:55.584Z,250.40
2022-09-09T14:50:26.263Z,272.25
2022-09-09T14:52:55.443Z,240.57
2022-09-09T14:55:24.690Z,237.00
2022-09-09T14:57:53.896Z,239.38
2022-09-09T15:02:55.889Z,272.30
2022-09-09T15:05:25.458Z,262.63
2022-09-09T15:07:54.560Z,264.90
2022-09-09T15:10:23.702Z,259.50
2022-09-09T15:12:52.854Z,204.30
2022-09-09T15:15:23.391Z,277.65
2022-09-09T15:17:52.532Z,270.85
2022-09-09T15:20:21.646Z,311.30
2022-09-09T15:22:51.948Z,263.90
2022-09-09T15:25:22.937Z,284.55
2022-09-09T15:27:52.154Z,315.50
2022-09-09T15:30:21.410Z,234.55
2022-09-09T15:32:54.085Z,228.43
2022-09-09T15:35:23.317Z,190.23
2022-09-09T15:37:52.467Z,260.52
2022-09-09T15:40:21.729Z,230.48
2022-09-09T15:42:50.943Z,215.15
2022-09-09T15:45:21.678Z,247.95
2022-09-09T15:47:53.031Z,256.00
2022-09-09T15:50:22.278Z,279.33
2022-09-09T15:52:53.369Z,250.60
2022-09-09T15:55:23.185Z,202.90
2022-09-09T15:57:53.269Z,250.20
2022-09-09T16:00:23.763Z,280.25
2022-09-09T16:02:57.566Z,271.65
2022-09-09T16:05:26.921Z,222.38
2022-09-09T16:07:59.435Z,239.13
2022-09-09T16:13:02.944Z,224.38
2022-09-09T16:15:32.324Z,236.35
2022-09-09T16:18:05.392Z,240.63
2022-09-09T16:20:34.544Z,254.90
2022-09-09T16:23:04.027Z,288.65
2022-09-09T16:25:33.436Z,204.55
2022-09-09T16:28:02.911Z,220.02
2022-09-09T16:30:35.204Z,211.65
2022-09-09T16:33:09.041Z,248.38
2022-09-09T16:35:41.493Z,214.35
2022-09-09T16:38:11.127Z,209.40
2022-09-09T16:40:43.029Z,240.10
2022-09-09T16:43:16.514Z,199.82
2022-09-09T16:45:46.490Z,203.02
2022-09-09T16:48:18.825Z,223.95
2022-09-09T16:50:48.051Z,277.20
2022-09-09T16:53:19.872Z,238.90
2022-09-09T16:55:49.319Z,194.75
2022-09-09T16:58:19.014Z,215.43
2022-09-09T17:00:50.076Z,238.60
2022-09-09T17:03:20.889Z,215.23
2022-09-09T17:05:50.069Z,222.50
2022-09-09T17:08:19.338Z,212.23
2022-09-09T17:10:49.311Z,205.88
2022-09-09T17:13:20.772Z,211.77
2022-09-09T17:15:50.170Z,296.15
2022-09-09T17:18:21.748Z,235.10
2022-09-09T17:20:50.969Z,224.52
2022-09-09T17:23:20.661Z,272.45
2022-09-09T17:25:59.161Z,289.20
2022-09-09T17:28:32.167Z,246.48
2022-09-09T17:31:04.012Z,261.27
2022-09-09T17:33:35.679Z,260.60
2022-09-09T17:36:12.283Z,221.93
2022-09-09T17:38:43.593Z,205.43
2022-09-09T17:41:16.815Z,211.25
2022-09-09T17:43:46.912Z,207.60
2022-09-09T17:46:20.797Z,219.60
2022-09-09T17:48:54.014Z,254.20
2022-09-09T17:51:27.160Z,238.55
2022-09-09T17:53:59.435Z,189.07
2022-09-09T17:56:31.664Z,241.45
2022-09-09T17:59:03.049Z,221.48
2022-09-09T18:01:34.479Z,239.45
2022-09-09T18:04:07.832Z,212.48
2022-09-09T18:06:39.450Z,218.20
2022-09-09T18:09:13.314Z,216.40
2022-09-09T18:11:45.487Z,236.73
2022-09-09T18:14:18.224Z,232.68
2022-09-09T18:16:48.549Z,232.95
2022-09-09T18:19:22.936Z,209.65
2022-09-09T18:21:52.571Z,201.45
2022-09-09T18:24:23.432Z,217.60
2022-09-09T18:26:53.642Z,179.95
2022-09-09T18:29:25.546Z,264.17
2022-09-09T18:31:56.594Z,227.48
2022-09-09T18:34:28.844Z,224.07
2022-09-09T18:36:59.042Z,170.50
2022-09-09T18:39:30.849Z,203.63
2022-09-09T18:42:02.471Z,232.80
2022-09-09T18:44:33.736Z,193.20
2022-09-09T18:47:04.121Z,218.80
2022-09-09T18:49:34.684Z,190.48
2022-09-09T18:52:04.868Z,184.52
2022-09-09T18:54:34.825Z,176.52
2022-09-09T18:57:04.005Z,212.50
2022-09-09T18:59:33.555Z,213.02
2022-09-09T19:02:02.783Z,205.93
2022-09-09T19:04:34.154Z,212.75
2022-09-09T19:07:03.276Z,214.23
2022-09-09T19:09:34.357Z,208.23
2022-09-09T19:12:05.898Z,170.07
2022-09-09T19:14:35.201Z,170.57
2022-09-09T19:17:05.007Z,194.00
2022-09-09T19:19:35.918Z,222.43
2022-09-09T19:22:07.005Z,191.52
2022-09-09T19:24:37.621Z,168.48
2022-09-09T19:27:08.813Z,191.90
2022-09-09T19:29:42.852Z,223.30
2022-09-09T19:35:03.308Z,189.82
2022-09-09T19:37:32.814Z,170.30
2022-09-09T19:40:02.428Z,187.20
2022-09-09T19:42:32.280Z,158.18
2022-09-09T19:45:01.721Z,178.57
2022-09-09T19:47:30.974Z,208.40
2022-09-09T19:50:00.240Z,209.10
2022-09-09T19:52:31.167Z,189.02
2022-09-09T19:55:01.345Z,188.65
2022-09-09T19:57:31.114Z,208.05
2022-09-09T20:00:00.982Z,210.30
2022-09-09T20:02:31.105Z,189.20
2022-09-09T20:05:00.289Z,219.60
2022-09-09T20:07:30.885Z,219.68
2022-09-09T20:10:00.442Z,211.52
2022-09-09T20:12:29.833Z,195.20
2022-09-09T20:14:58.978Z,229.55
2022-09-09T20:17:28.147Z,214.88
2022-09-09T20:19:57.676Z,198.75
2022-09-09T20:22:26.881Z,225.77
2022-09-09T20:24:57.473Z,217.88
2022-09-09T20:27:27.716Z,224.38
2022-09-09T20:29:56.861Z,203.55
2022-09-09T20:32:26.205Z,216.60
2022-09-09T20:34:55.673Z,192.45
2022-09-09T20:37:25.072Z,210.20
2022-09-09T20:39:55.910Z,202.45
2022-09-09T20:42:26.531Z,198.93
2022-09-09T20:44:55.685Z,201.90
2022-09-09T20:47:24.986Z,225.13
2022-09-09T20:49:54.223Z,211.35
2022-09-09T20:52:23.410Z,190.25
2022-09-09T20:54:54.311Z,207.55
2022-09-09T20:57:24.597Z,198.63
2022-09-09T20:59:55.201Z,202.32
2022-09-09T21:02:24.459Z,187.98
2022-09-09T21:04:54.073Z,229.82
2022-09-09T21:07:24.094Z,226.35
2022-09-09T21:09:57.836Z,211.88
2022-09-09T21:12:27.945Z,212.13
2022-09-09T21:14:58.879Z,206.57
2022-09-09T21:17:29.016Z,224.45
2022-09-09T21:19:58.256Z,203.85
2022-09-09T21:22:27.428Z,200.75
2022-09-09T21:24:56.796Z,209.75
2022-09-09T21:27:26.170Z,180.23
2022-09-09T21:29:55.289Z,204.52
2022-09-09T21:32:25.938Z,197.98
2022-09-09T21:34:55.232Z,169.23
2022-09-09T21:37:24.441Z,189.93
2022-09-09T21:39:57.025Z,182.43
2022-09-09T21:44:57.848Z,114.88
2022-09-09T21:47:28.458Z,133.95
2022-09-09T21:49:57.550Z,154.95
2022-09-09T21:52:26.804Z,154.75
2022-09-09T21:54:56.004Z,128.68
2022-09-09T21:57:25.742Z,178.27
2022-09-09T21:59:55.037Z,151.85
2022-09-09T22:02:24.746Z,170.70
2022-09-09T22:04:55.409Z,171.00
2022-09-09T22:07:24.726Z,139.90
2022-09-09T22:09:53.945Z,169.98
2022-09-09T22:12:23.032Z,149.60
2022-09-09T22:14:53.481Z,132.75
2022-09-09T22:17:24.950Z,157.13
2022-09-09T22:19:55.608Z,127.78
2022-09-09T22:22:24.832Z,150.20
2022-09-09T22:24:54.028Z,143.75
2022-09-09T22:27:23.286Z,140.43
2022-09-09T22:29:52.557Z,133.52
2022-09-09T22:32:22.873Z,123.60
2022-09-09T22:34:52.150Z,145.50
2022-09-09T22:37:23.302Z,147.20
2022-09-09T22:39:52.516Z,143.43
2022-09-09T22:42:22.836Z,148.68
2022-09-09T22:44:52.054Z,150.18
2022-09-09T22:47:21.272Z,134.77
2022-09-09T22:49:50.476Z,150.93
2022-09-09T22:52:21.042Z,131.55
2022-09-09T22:54:50.133Z,140.98
2022-09-09T22:57:19.575Z,116.78
2022-09-09T22:59:50.038Z,123.35
2022-09-09T23:02:20.777Z,126.90
2022-09-09T23:04:50.281Z,128.57
2022-09-09T23:07:21.021Z,132.07
2022-09-09T23:09:51.665Z,126.30
2022-09-09T23:12:22.269Z,121.05
2022-09-09T23:14:52.101Z,114.32
2022-09-09T23:17:21.575Z,115.93
2022-09-09T23:19:53.345Z,116.53
2022-09-09T23:22:23.103Z,106.85
2022-09-09T23:24:54.124Z,103.50
2022-09-09T23:27:23.335Z,115.35
2022-09-09T23:29:52.527Z,109.70
2022-09-09T23:32:22.069Z,118.38
2022-09-09T23:34:51.827Z,119.68
2022-09-09T23:37:21.046Z,116.97
2022-09-09T23:39:50.240Z,117.07
2022-09-09T23:42:20.881Z,117.05
2022-09-09T23:44:50.932Z,111.45
2022-09-09T23:47:20.100Z,108.85
2022-09-09T23:49:50.711Z,110.65
2022-09-09T23:52:19.970Z,115.72
2022-09-09T23:54:49.965Z,106.43
2022-09-09T23:57:21.883Z,109.47
2022-09-09T23:59:51.203Z,109.55
